Time;durP1;ratioP1;P1;durP2;ratioP2;P2;SDS_P1;SDS_P2;PMS_P1;PMS_P2;Temp;Humidity;BMP_temperature;BMP_pressure;BME280_temperature;BME280_humidity;BME280_pressure;Samples;Min_cycle;Max_cycle;Signal;HPM_P1;HPM_P2
2023/03/05 00:00:03;;;;;;;8.83;1.63;;;;;;;0.85;100.00;101473.06;7395622;19;20459;-43
2023/03/05 00:02:32;;;;;;;8.53;2.23;;;;;;;0.86;100.00;101471.44;7398999;19;20406;-42
2023/03/05 00:05:02;;;;;;;17.80;2.93;;;;;;;0.91;100.00;101471.09;7395080;19;20848;-44
2023/03/05 00:07:31;;;;;;;3.70;1.23;;;;;;;0.94;100.00;101468.81;7395620;19;20402;-42
2023/03/05 00:10:01;;;;;;;9.37;1.60;;;;;;;0.91;100.00;101471.09;7393724;19;20423;-40
2023/03/05 00:12:31;;;;;;;10.23;2.00;;;;;;;0.90;100.00;101479.47;7397009;19;20430;-45
2023/03/05 00:15:03;;;;;;;7.93;1.60;;;;;;;0.92;100.00;101477.09;7393891;19;20467;-43
2023/03/05 00:17:33;;;;;;;8.83;1.47;;;;;;;0.92;100.00;101482.16;7396666;19;20902;-43
2023/03/05 00:20:02;;;;;;;7.57;1.30;;;;;;;0.94;100.00;101486.59;7392816;19;20482;-45
2023/03/05 00:22:32;;;;;;;11.33;1.47;;;;;;;0.98;100.00;101497.06;7395043;19;21225;-47
2023/03/05 00:25:01;;;;;;;6.73;1.30;;;;;;;0.96;100.00;101490.97;7392998;19;20527;-42
2023/03/05 00:27:31;;;;;;;5.30;0.90;;;;;;;1.00;100.00;101505.72;7396091;19;20397;-47
2023/03/05 00:30:03;;;;;;;9.10;1.43;;;;;;;0.99;100.00;101503.94;7394157;19;20462;-47
2023/03/05 00:32:34;;;;;;;7.30;1.20;;;;;;;1.01;100.00;101510.06;7396636;19;20411;-44
2023/03/05 00:35:04;;;;;;;10.23;1.63;;;;;;;1.04;100.00;101510.34;7394509;19;20796;-44
2023/03/05 00:37:33;;;;;;;12.13;2.07;;;;;;;1.04;100.00;101513.75;7395744;19;20401;-44
2023/03/05 00:40:03;;;;;;;12.07;1.37;;;;;;;1.07;100.00;101514.06;7392364;19;20467;-46
2023/03/05 00:42:37;;;;;;;11.13;2.60;;;;;;;1.05;100.00;101519.75;7396336;19;20403;-49
2023/03/05 00:45:11;;;;;;;10.23;1.50;;;;;;;1.06;100.00;101526.63;7392440;19;20423;-46
2023/03/05 00:47:41;;;;;;;11.30;1.57;;;;;;;1.00;100.00;101520.97;7395853;19;20399;-44
2023/03/05 00:50:12;;;;;;;7.23;1.40;;;;;;;0.98;100.00;101509.78;7392916;19;20458;-42
2023/03/05 00:52:41;;;;;;;9.60;1.60;;;;;;;0.97;100.00;101501.25;7396958;19;20395;-43
2023/03/05 00:55:11;;;;;;;8.10;1.27;;;;;;;0.93;100.00;101505.16;7394293;19;20470;-43
2023/03/05 00:57:43;;;;;;;9.30;1.40;;;;;;;0.89;100.00;101492.03;7396338;19;21045;-47
2023/03/05 01:00:16;;;;;;;9.77;1.30;;;;;;;0.87;100.00;101479.19;7393223;19;20474;-44
2023/03/05 01:02:46;;;;;;;4.40;1.40;;;;;;;0.77;100.00;101466.38;7396748;19;20419;-43
2023/03/05 01:05:16;;;;;;;7.37;1.37;;;;;;;0.68;100.00;101446.09;7395595;19;20435;-45
2023/03/05 01:07:46;;;;;;;10.73;1.60;;;;;;;0.58;100.00;101428.22;7395762;19;20414;-44
2023/03/05 01:10:16;;;;;;;4.40;1.23;;;;;;;0.48;100.00;101411.22;7391827;19;20455;-43
2023/03/05 01:12:45;;;;;;;7.20;1.00;;;;;;;0.46;100.00;101387.34;7395608;19;20399;-44
2023/03/05 01:15:18;;;;;;;7.47;1.17;;;;;;;0.32;100.00;101369.19;7393647;19;21005;-44
2023/03/05 01:17:47;;;;;;;10.17;1.80;;;;;;;0.30;100.00;101345.28;7395217;19;20407;-45
2023/03/05 01:20:19;;;;;;;9.07;2.50;;;;;;;0.33;100.00;101330.34;7392926;19;21265;-44
2023/03/05 01:22:48;;;;;;;6.97;1.30;;;;;;;0.33;100.00;101310.03;7395190;19;20396;-42
2023/03/05 01:25:19;;;;;;;10.20;1.73;;;;;;;0.34;100.00;101296.59;7392286;19;20450;-43
2023/03/05 01:27:48;;;;;;;3.03;1.10;;;;;;;0.23;100.00;101282.00;7395074;19;20407;-44
2023/03/05 01:30:21;;;;;;;8.43;1.50;;;;;;;0.16;100.00;101269.53;7389097;19;20462;-45
2023/03/05 01:32:50;;;;;;;6.07;1.10;;;;;;;0.13;100.00;101245.66;7393015;19;20143;-43
2023/03/05 01:35:22;;;;;;;6.25;1.35;;;;;;;0.10;100.00;101230.13;7391197;19;20467;-43
2023/03/05 01:37:52;;;;;;;6.38;1.52;;;;;;;0.08;100.00;101210.44;7393239;19;20611;-46
2023/03/05 01:40:25;;;;;;;7.45;1.35;;;;;;;0.07;100.00;101189.25;7388307;19;20221;-45
2023/03/05 01:43:00;;;;;;;10.90;1.65;;;;;;;0.03;100.00;101171.97;7394810;19;20141;-45
2023/03/05 01:45:35;;;;;;;12.77;2.33;;;;;;;0.07;100.00;101163.88;7389496;19;20190;-43
2023/03/05 01:48:06;;;;;;;8.50;2.03;;;;;;;0.07;100.00;101143.59;7393412;19;20472;-45
2023/03/05 01:50:35;;;;;;;11.60;2.10;;;;;;;0.06;100.00;101138.38;7388125;19;20201;-43
2023/03/05 01:53:07;;;;;;;9.20;2.07;;;;;;;0.06;100.00;101116.41;7393741;19;20412;-43
2023/03/05 01:55:36;;;;;;;9.23;1.77;;;;;;;0.03;100.00;101103.44;7389980;19;20443;-44
2023/03/05 01:58:09;;;;;;;11.73;2.70;;;;;;;0.03;100.00;101087.31;7393083;19;20948;-48
2023/03/05 02:00:44;;;;;;;12.02;1.55;;;;;;;0.01;100.00;101071.97;7390021;19;20226;-42
2023/03/05 02:03:15;;;;;;;7.68;1.50;;;;;;;0.05;100.00;101063.88;7394220;19;20154;-44
2023/03/05 02:05:45;;;;;;;8.15;1.58;;;;;;;-0.02;100.00;101051.41;7390955;19;20186;-45
2023/03/05 02:08:17;;;;;;;10.15;1.30;;;;;;;-0.06;100.00;101049.38;7393768;19;20175;-47
2023/03/05 02:10:48;;;;;;;8.52;1.30;;;;;;;-0.11;100.00;101046.38;7386526;19;20202;-43
2023/03/05 02:13:22;;;;;;;5.85;1.40;;;;;;;-0.14;100.00;101036.84;7394265;19;20150;-43
2023/03/05 02:15:55;;;;;;;9.82;1.25;;;;;;;-0.12;100.00;101028.53;7391402;19;20577;-44
2023/03/05 02:18:25;;;;;;;10.70;1.70;;;;;;;-0.15;100.00;101024.94;7393467;19;20146;-47
2023/03/05 02:21:01;;;;;;;5.50;1.58;;;;;;;-0.14;100.00;101024.16;7388822;19;20809;-44
2023/03/05 02:23:35;;;;;;;12.43;2.83;;;;;;;-0.11;100.00;101017.63;7392557;19;20174;-46
2023/03/05 02:26:05;;;;;;;5.80;1.80;;;;;;;-0.12;100.00;101018.38;7390686;19;20209;-42
2023/03/05 02:28:38;;;;;;;6.80;1.83;;;;;;;-0.11;100.00;101010.00;7391982;19;20403;-44
2023/03/05 02:31:12;;;;;;;5.18;1.98;;;;;;;-0.19;100.00;101005.13;7389369;19;20201;-44
2023/03/05 02:33:42;;;;;;;13.82;3.08;;;;;;;-0.14;100.00;101016.56;7393100;19;20506;-42
2023/03/05 02:36:14;;;;;;;4.68;1.67;;;;;;;-0.14;100.00;101021.63;7390438;19;20194;-43
2023/03/05 02:38:44;;;;;;;4.30;1.77;;;;;;;-0.09;100.00;101016.09;7392673;19;20167;-43
2023/03/05 02:41:14;;;;;;;8.20;2.20;;;;;;;-0.18;100.00;101016.16;7389184;19;20201;-47
2023/03/05 02:43:44;;;;;;;9.23;2.33;;;;;;;-0.23;100.00;101020.84;7392939;19;20139;-45
2023/03/05 02:46:13;;;;;;;7.90;2.15;;;;;;;-0.23;100.00;101018.28;7391048;19;20190;-43
2023/03/05 02:48:43;;;;;;;11.77;2.40;;;;;;;-0.27;100.00;101023.84;7392294;19;20155;-44
2023/03/05 02:51:16;;;;;;;10.02;1.85;;;;;;;-0.33;100.00;101028.34;7389178;19;20202;-43
2023/03/05 02:53:45;;;;;;;10.95;2.13;;;;;;;-0.36;100.00;101017.94;7393148;19;20164;-46
2023/03/05 02:56:15;;;;;;;5.22;1.83;;;;;;;-0.38;100.00;101021.97;7390871;19;20187;-46
2023/03/05 02:58:44;;;;;;;3.58;1.65;;;;;;;-0.42;100.00;101020.81;7392238;19;20154;-43
2023/03/05 03:01:14;;;;;;;10.35;1.50;;;;;;;-0.36;100.00;101018.81;7389069;19;20671;-44
2023/03/05 03:03:43;;;;;;;3.33;1.42;;;;;;;-0.38;100.00;101019.44;7392629;19;20162;-43
2023/03/05 03:06:15;;;;;;;7.57;1.30;;;;;;;-0.42;100.00;101014.09;7391312;19;20199;-43
2023/03/05 03:08:45;;;;;;;8.43;1.60;;;;;;;-0.39;100.00;101013.50;7392041;19;20188;-42
2023/03/05 03:11:15;;;;;;;4.45;1.13;;;;;;;-0.40;100.00;101011.72;7388308;19;20190;-42
2023/03/05 03:13:46;;;;;;;8.23;1.40;;;;;;;-0.42;100.00;101006.50;7392391;19;20636;-42
2023/03/05 03:16:17;;;;;;;6.88;1.35;;;;;;;-0.37;100.00;101003.50;7390517;19;20265;-44
2023/03/05 03:18:47;;;;;;;4.78;1.60;;;;;;;-0.34;100.00;101012.28;7392506;19;20135;-42
2023/03/05 03:21:25;;;;;;;5.13;1.60;;;;;;;-0.35;100.00;101007.97;7391710;19;20202;-43
2023/03/05 03:23:55;;;;;;;5.20;1.65;;;;;;;-0.32;100.00;101002.25;7400369;19;20407;-42
2023/03/05 03:26:24;;;;;;;6.05;1.35;;;;;;;-0.33;100.00;101008.97;7399245;19;20194;-42
2023/03/05 03:28:54;;;;;;;5.90;1.60;;;;;;;-0.34;100.00;101017.34;7399409;19;20619;-41
2023/03/05 03:31:23;;;;;;;4.00;1.50;;;;;;;-0.34;100.00;101006.28;7394934;19;20205;-46
2023/03/05 03:33:53;;;;;;;3.85;1.20;;;;;;;-0.35;100.00;101004.50;7399598;19;20142;-44
2023/03/05 03:36:25;;;;;;;10.13;1.90;;;;;;;-0.38;100.00;100999.16;7395272;19;20194;-43
2023/03/05 03:38:54;;;;;;;5.00;1.38;;;;;;;-0.38;100.00;101000.06;7398781;19;20139;-41
2023/03/05 03:41:23;;;;;;;8.55;1.92;;;;;;;-0.44;100.00;100999.50;7395282;19;20213;-42
2023/03/05 03:43:53;;;;;;;3.97;1.10;;;;;;;-0.50;100.00;101004.94;7398685;19;20146;-44
2023/03/05 03:46:22;;;;;;;8.27;2.25;;;;;;;-0.43;100.00;100997.13;7395370;19;20194;-43
2023/03/05 03:48:54;;;;;;;10.50;1.92;;;;;;;-0.48;100.00;100993.28;7398432;19;20131;-44
2023/03/05 03:51:26;;;;;;;3.65;1.30;;;;;;;-0.55;100.00;100998.53;7394355;19;20221;-41
2023/03/05 03:53:56;;;;;;;6.47;1.90;;;;;;;-0.54;100.00;100997.78;7398897;19;20135;-41
2023/03/05 03:56:25;;;;;;;4.18;1.50;;;;;;;-0.58;100.00;100996.63;7398579;19;20454;-43
2023/03/05 03:58:55;;;;;;;5.30;1.30;;;;;;;-0.44;100.00;100994.44;7397901;19;20155;-44
2023/03/05 04:01:25;;;;;;;5.82;1.50;;;;;;;-0.51;100.00;101000.59;7396150;19;20686;-42
2023/03/05 04:03:54;;;;;;;5.50;1.40;;;;;;;-0.52;100.00;100990.34;7398133;19;20139;-43
2023/03/05 04:06:26;;;;;;;8.25;1.50;;;;;;;-0.49;100.00;100990.59;7395950;19;20205;-46
2023/03/05 04:08:56;;;;;;;4.13;1.13;;;;;;;-0.52;100.00;100998.81;7397786;19;20147;-43
2023/03/05 04:11:26;;;;;;;3.25;1.23;;;;;;;-0.53;100.00;100994.50;7394711;19;20194;-43
2023/03/05 04:13:55;;;;;;;5.55;1.40;;;;;;;-0.52;100.00;101001.34;7397358;19;20146;-42
2023/03/05 04:16:25;;;;;;;4.80;1.40;;;;;;;-0.45;100.00;100988.47;7397107;19;20206;-44
2023/03/05 04:18:55;;;;;;;4.97;1.60;;;;;;;-0.43;100.00;101002.19;7395510;19;20139;-44
2023/03/05 04:21:28;;;;;;;5.50;1.65;;;;;;;-0.42;100.00;101000.53;7393853;19;20222;-43
2023/03/05 04:23:57;;;;;;;7.18;1.65;;;;;;;-0.49;100.00;101000.72;7398192;19;20139;-44
2023/03/05 04:26:27;;;;;;;3.42;1.30;;;;;;;-0.54;100.00;100992.72;7397248;19;20188;-43
2023/03/05 04:28:56;;;;;;;3.05;1.27;;;;;;;-0.53;100.00;100988.56;7397400;19;20154;-41
2023/03/05 04:31:26;;;;;;;4.47;1.08;;;;;;;-0.60;100.00;100992.16;7395203;19;20222;-41
2023/03/05 04:33:55;;;;;;;6.30;1.10;;;;;;;-0.62;100.00;100988.59;7396045;19;20147;-43
2023/03/05 04:36:27;;;;;;;2.80;0.90;;;;;;;-0.60;100.00;100977.84;7397315;19;20196;-43
2023/03/05 04:38:57;;;;;;;4.38;0.70;;;;;;;-0.65;100.00;100988.31;7397093;19;20146;-42
2023/03/05 04:41:26;;;;;;;4.10;0.85;;;;;;;-0.66;100.00;100977.31;7394816;19;20194;-43
2023/03/05 04:43:56;;;;;;;5.97;1.05;;;;;;;-0.68;100.00;100976.25;7397136;19;20170;-45
2023/03/05 04:46:25;;;;;;;2.95;1.05;;;;;;;-0.65;100.00;100971.47;7397879;19;20194;-42
2023/03/05 04:48:55;;;;;;;11.05;1.15;;;;;;;-0.67;100.00;100975.50;7396038;19;20153;-42
2023/03/05 04:51:27;;;;;;;4.15;1.13;;;;;;;-0.70;100.00;100976.13;7395010;19;20222;-47
2023/03/05 04:53:57;;;;;;;5.43;1.92;;;;;;;-0.61;100.00;100962.50;7396813;19;20524;-45
2023/03/05 04:56:27;;;;;;;3.47;1.55;;;;;;;-0.68;100.00;100959.41;7396319;19;20195;-42
2023/03/05 04:58:56;;;;;;;8.48;2.88;;;;;;;-0.67;100.00;100960.28;7396007;19;20166;-42
2023/03/05 05:01:26;;;;;;;12.05;2.88;;;;;;;-0.65;100.00;100962.97;7394549;19;20200;-45
2023/03/05 05:03:55;;;;;;;9.75;2.50;;;;;;;-0.69;100.00;100955.09;7396836;19;20139;-44
2023/03/05 05:06:27;;;;;;;9.30;3.55;;;;;;;-0.69;100.00;100952.56;7396113;19;20194;-41
2023/03/05 05:08:57;;;;;;;7.63;4.05;;;;;;;-0.71;100.00;100956.59;7396539;19;20135;-44
2023/03/05 05:11:26;;;;;;;8.48;3.90;;;;;;;-0.69;100.00;100951.66;7394260;19;20202;-44
2023/03/05 05:13:56;;;;;;;12.45;4.30;;;;;;;-0.72;100.00;100957.34;7395734;19;20625;-42
2023/03/05 05:16:25;;;;;;;7.25;4.22;;;;;;;-0.70;100.00;100950.78;7395930;19;20217;-43
2023/03/05 05:18:55;;;;;;;21.67;4.85;;;;;;;-0.64;100.00;100952.06;7395753;19;20649;-43
2023/03/05 05:21:24;;;;;;;14.40;4.70;;;;;;;-0.62;100.00;100948.06;7393629;19;20193;-41
2023/03/05 05:23:56;;;;;;;9.70;4.78;;;;;;;-0.57;100.00;100939.19;7396761;19;20145;-42
2023/03/05 05:26:26;;;;;;;8.05;4.32;;;;;;;-0.58;100.00;100939.94;7395770;19;20181;-42
2023/03/05 05:28:56;;;;;;;16.45;4.30;;;;;;;-0.58;100.00;100940.84;7395172;19;20146;-42
2023/03/05 05:31:25;;;;;;;13.80;4.15;;;;;;;-0.61;100.00;100939.69;7393627;19;20197;-42
2023/03/05 05:33:54;;;;;;;17.27;3.90;;;;;;;-0.58;100.00;100934.88;7395565;19;20175;-43
2023/03/05 05:36:24;;;;;;;15.35;4.55;;;;;;;-0.59;100.00;100936.53;7393685;19;20538;-42
2023/03/05 05:38:54;;;;;;;16.58;4.00;;;;;;;-0.52;100.00;100932.91;7394569;19;20153;-45
2023/03/05 05:41:26;;;;;;;10.40;3.63;;;;;;;-0.56;100.00;100933.41;7391212;19;20198;-44
2023/03/05 05:43:55;;;;;;;12.57;3.75;;;;;;;-0.56;100.00;100928.31;7393089;19;20139;-44
2023/03/05 05:46:26;;;;;;;10.18;3.00;;;;;;;-0.61;100.00;100924.47;7394693;19;20197;-43
2023/03/05 05:48:55;;;;;;;8.70;2.97;;;;;;;-0.62;100.00;100925.25;7395007;19;20148;-41
2023/03/05 05:51:25;;;;;;;7.07;3.10;;;;;;;-0.64;100.00;100926.72;7393915;19;20194;-43
2023/03/05 05:53:55;;;;;;;5.95;2.40;;;;;;;-0.66;100.00;100929.16;7395089;19;20170;-42
2023/03/05 05:56:28;;;;;;;5.03;2.13;;;;;;;-0.63;100.00;100923.44;7394759;19;20201;-43
2023/03/05 05:58:57;;;;;;;7.50;2.47;;;;;;;-0.63;100.00;100921.81;7394052;19;20154;-43
2023/03/05 06:01:29;;;;;;;7.57;2.40;;;;;;;-0.52;100.00;100930.34;7393303;19;20190;-43
2023/03/05 06:03:59;;;;;;;4.13;2.03;;;;;;;-0.53;100.00;100928.59;7394907;19;20135;-43
2023/03/05 06:06:29;;;;;;;7.88;1.85;;;;;;;-0.52;100.00;100932.91;7394640;19;20186;-42
2023/03/05 06:08:59;;;;;;;8.20;2.47;;;;;;;-0.47;100.00;100938.41;7394328;19;20135;-41
2023/03/05 06:11:32;;;;;;;7.13;2.00;;;;;;;-0.45;100.00;100939.41;7392805;19;20194;-43
2023/03/05 06:14:03;;;;;;;7.30;1.40;;;;;;;-0.29;100.00;100934.06;7390972;19;20230;-42
2023/03/05 06:16:32;;;;;;;12.07;2.88;;;;;;;-0.28;100.00;100929.13;7392037;19;20131;-42
2023/03/05 06:19:03;;;;;;;6.90;1.73;;;;;;;-0.35;100.00;100929.34;7388533;19;20875;-47
2023/03/05 06:21:33;;;;;;;18.05;8.13;;;;;;;0.34;100.00;100919.97;7391010;19;20565;-43
2023/03/05 06:24:03;;;;;;;9.05;1.65;;;;;;;-0.07;100.00;100921.59;7392212;19;20182;-43
2023/03/05 06:26:35;;;;;;;4.37;1.30;;;;;;;-0.19;100.00;100925.59;7392645;19;20151;-42
2023/03/05 06:29:05;;;;;;;24.75;11.05;;;;;;;0.02;100.00;100931.66;7391494;19;20411;-42
2023/03/05 06:31:34;;;;;;;5.07;2.10;;;;;;;-0.10;100.00;100930.59;7390673;19;20170;-41
2023/03/05 06:34:05;;;;;;;34.05;14.55;;;;;;;-0.09;100.00;100928.19;7390006;19;20403;-42
2023/03/05 06:36:35;;;;;;;10.93;2.73;;;;;;;0.07;100.00;100930.44;7392459;19;20139;-44
2023/03/05 06:39:05;;;;;;;17.67;4.68;;;;;;;0.01;100.00;100936.59;7391235;19;20418;-46
2023/03/05 06:41:37;;;;;;;5.07;1.20;;;;;;;-0.15;100.00;100943.75;7390276;19;20170;-42
2023/03/05 06:44:07;;;;;;;5.40;1.10;;;;;;;-0.21;100.00;100942.34;7390644;19;20143;-46
2023/03/05 06:46:38;;;;;;;5.63;1.50;;;;;;;-0.21;100.00;100950.81;7392475;19;20158;-42
2023/03/05 06:49:08;;;;;;;5.47;1.17;;;;;;;-0.17;100.00;100946.91;7390962;19;20135;-42
2023/03/05 06:51:39;;;;;;;3.97;1.10;;;;;;;-0.17;100.00;100946.91;7390609;19;20185;-45
2023/03/05 06:54:10;;;;;;;4.28;1.02;;;;;;;-0.17;100.00;100954.53;7389193;19;20138;-42
2023/03/05 06:56:44;;;;;;;4.90;1.05;;;;;;;-0.18;100.00;100946.03;7396938;19;20131;-42
2023/03/05 06:59:15;;;;;;;6.38;1.10;;;;;;;-0.17;100.00;100945.28;7398195;19;20139;-41
2023/03/05 07:01:44;;;;;;;4.45;1.00;;;;;;;-0.16;100.00;100947.06;7400173;19;20138;-43
2023/03/05 07:04:14;;;;;;;8.43;1.42;;;;;;;-0.08;100.00;100949.38;7398589;19;20150;-42
2023/03/05 07:06:44;;;;;;;3.08;0.70;;;;;;;-0.06;100.00;100948.75;7399869;19;20147;-42
2023/03/05 07:09:16;;;;;;;5.27;1.27;;;;;;;-0.03;100.00;100958.28;7397495;19;20330;-42
2023/03/05 07:11:48;;;;;;;2.67;1.00;;;;;;;0.01;100.00;100957.81;7400069;19;20936;-42
2023/03/05 07:14:17;;;;;;;2.05;0.73;;;;;;;0.01;100.00;100959.44;7395463;19;20143;-45
2023/03/05 07:16:47;;;;;;;4.95;1.20;;;;;;;-0.01;100.00;100962.75;7399071;19;20145;-41
2023/03/05 07:19:17;;;;;;;6.88;1.05;;;;;;;0.02;100.00;100969.72;7396748;19;20142;-44
2023/03/05 07:21:46;;;;;;;3.60;0.80;;;;;;;0.06;100.00;100963.28;7400638;19;20139;-42
2023/03/05 07:24:16;;;;;;;4.70;1.00;;;;;;;0.01;100.00;100967.06;7399745;19;20142;-43
2023/03/05 07:26:48;;;;;;;4.90;1.60;;;;;;;0.02;100.00;100969.72;7399754;19;20151;-42
2023/03/05 07:29:17;;;;;;;1.50;0.55;;;;;;;0.05;100.00;100966.56;7397077;19;20131;-42
2023/03/05 07:31:46;;;;;;;6.60;1.10;;;;;;;0.02;100.00;100967.19;7399313;19;20139;-44
2023/03/05 07:34:16;;;;;;;2.58;1.15;;;;;;;0.17;100.00;100960.03;7396376;19;20523;-46
2023/03/05 07:36:51;;;;;;;3.75;1.33;;;;;;;0.30;100.00;100964.50;7399418;19;20130;-42
2023/03/05 07:39:22;;;;;;;4.05;1.02;;;;;;;0.31;100.00;100961.19;7396037;19;20190;-43
2023/03/05 07:41:54;;;;;;;6.10;1.27;;;;;;;0.42;100.00;100961.25;7399416;19;20170;-42
2023/03/05 07:44:23;;;;;;;8.05;1.13;;;;;;;0.48;100.00;100949.06;7396308;19;20564;-43
2023/03/05 07:46:52;;;;;;;3.92;1.00;;;;;;;0.46;100.00;100955.69;7399438;19;20170;-45
2023/03/05 07:49:22;;;;;;;5.70;0.90;;;;;;;0.52;100.00;100963.81;7395787;19;20194;-44
2023/03/05 07:51:52;;;;;;;2.03;0.70;;;;;;;0.45;100.00;100974.22;7399756;19;20147;-43
2023/03/05 07:54:21;;;;;;;4.30;0.90;;;;;;;0.42;100.00;100990.09;7394861;19;20938;-45
2023/03/05 07:56:57;;;;;;;7.13;0.80;;;;;;;0.44;100.00;100998.72;7398940;19;20420;-44
2023/03/05 07:59:26;;;;;;;3.00;0.70;;;;;;;0.46;100.00;101006.47;7394682;19;20190;-43
2023/03/05 08:01:55;;;;;;;3.00;0.90;;;;;;;0.52;100.00;101019.69;7399081;19;20415;-46
2023/03/05 08:04:25;;;;;;;4.50;0.73;;;;;;;0.59;100.00;101023.63;7395856;19;20464;-42
2023/03/05 08:06:55;;;;;;;4.57;1.02;;;;;;;0.66;100.00;101034.47;7396688;19;20483;-43
2023/03/05 08:09:24;;;;;;;6.10;1.00;;;;;;;0.66;100.00;101037.00;7393211;19;20213;-45
2023/03/05 08:11:56;;;;;;;4.03;0.80;;;;;;;0.75;100.00;101042.00;7397687;19;20415;-44
2023/03/05 08:14:26;;;;;;;2.77;0.90;;;;;;;0.74;100.00;101044.38;7393469;19;20438;-42
2023/03/05 08:16:55;;;;;;;3.13;0.80;;;;;;;0.83;100.00;101050.28;7397094;19;20971;-43
2023/03/05 08:19:25;;;;;;;9.03;1.40;;;;;;;0.90;100.00;101051.66;7393044;19;20403;-43
2023/03/05 08:21:54;;;;;;;5.47;0.70;;;;;;;0.83;100.00;101050.28;7393626;19;20410;-44
2023/03/05 08:24:28;;;;;;;5.63;1.40;;;;;;;0.83;100.00;101047.72;7395671;19;20397;-42
2023/03/05 08:27:01;;;;;;;10.43;0.90;;;;;;;0.82;100.00;101051.00;7393999;19;20378;-44
2023/03/05 08:29:30;;;;;;;9.98;1.25;;;;;;;0.83;100.00;101060.44;7392631;19;20427;-41
2023/03/05 08:32:00;;;;;;;12.30;1.30;;;;;;;0.80;100.00;101055.97;7397337;19;20135;-42
2023/03/05 08:34:29;;;;;;;3.70;1.03;;;;;;;0.84;100.00;101058.75;7394202;19;20420;-42
2023/03/05 08:36:59;;;;;;;7.37;1.00;;;;;;;0.84;100.00;101072.38;7397674;19;20415;-43
2023/03/05 08:39:29;;;;;;;6.72;1.38;;;;;;;0.94;100.00;101067.31;7394066;19;20471;-45
2023/03/05 08:42:01;;;;;;;4.90;1.00;;;;;;;0.93;100.00;101078.22;7397137;19;20131;-42
2023/03/05 08:44:30;;;;;;;7.80;1.17;;;;;;;1.03;100.00;101084.13;7392570;19;20439;-43
2023/03/05 08:47:00;;;;;;;6.03;1.10;;;;;;;1.10;100.00;101091.50;7396740;19;20384;-43
2023/03/05 08:49:29;;;;;;;4.53;1.00;;;;;;;1.13;100.00;101091.75;7393349;19;20418;-43
2023/03/05 08:51:58;;;;;;;8.83;1.00;;;;;;;1.15;100.00;101090.25;7395438;19;20438;-45
2023/03/05 08:54:28;;;;;;;3.60;0.90;;;;;;;1.15;100.00;101112.22;7392399;19;20451;-42
2023/03/05 08:57:00;;;;;;;10.83;2.30;;;;;;;1.25;100.00;101098.63;7395407;19;20408;-47
2023/03/05 08:59:29;;;;;;;4.03;1.07;;;;;;;1.29;100.00;101119.38;7391422;19;20446;-43
2023/03/05 09:02:01;;;;;;;9.40;1.90;;;;;;;1.32;100.00;101108.56;7395570;19;20404;-43
2023/03/05 09:04:31;;;;;;;14.17;1.40;;;;;;;1.47;100.00;101103.88;7391656;19;20419;-42
2023/03/05 09:07:00;;;;;;;15.43;2.77;;;;;;;1.58;100.00;101097.16;7395479;19;20402;-42
2023/03/05 09:09:31;;;;;;;25.13;5.33;;;;;;;1.51;100.00;101094.84;7391650;19;20415;-41
2023/03/05 09:12:04;;;;;;;6.73;1.70;;;;;;;1.38;100.00;101093.81;7395230;19;20482;-44
2023/03/05 09:14:33;;;;;;;6.73;2.10;;;;;;;1.51;100.00;101102.50;7390824;19;20844;-43
2023/03/05 09:17:03;;;;;;;4.57;1.20;;;;;;;1.71;100.00;101094.88;7394716;19;20400;-42
2023/03/05 09:19:33;;;;;;;3.97;1.50;;;;;;;1.87;100.00;101096.13;7391346;19;20531;-43
2023/03/05 09:22:02;;;;;;;4.60;1.70;;;;;;;2.06;100.00;101097.66;7394363;19;20403;-42
2023/03/05 09:24:32;;;;;;;8.10;1.43;;;;;;;2.10;100.00;101095.47;7390613;19;20468;-44
2023/03/05 09:27:04;;;;;;;9.57;2.10;;;;;;;2.13;100.00;101098.28;7394823;19;20415;-43
2023/03/05 09:29:33;;;;;;;11.00;1.87;;;;;;;2.08;100.00;101121.56;7390381;19;20431;-42
2023/03/05 09:32:03;;;;;;;3.20;1.00;;;;;;;2.01;100.00;101125.28;7394841;19;20571;-43
2023/03/05 09:34:33;;;;;;;6.00;1.13;;;;;;;1.93;100.00;101129.72;7390272;19;20423;-42
2023/03/05 09:37:02;;;;;;;39.28;6.70;;;;;;;2.07;100.00;101140.16;7393665;19;20783;-43
2023/03/05 09:39:32;;;;;;;4.60;1.57;;;;;;;1.93;100.00;101137.38;7389511;19;20536;-41
2023/03/05 09:42:27;;;;;;;8.50;1.40;;;;;;;1.83;100.00;101145.00;7395079;19;20483;-45
2023/03/05 09:45:05;;;;;;;7.03;1.20;;;;;;;1.78;100.00;101144.63;7390365;19;20439;-43
2023/03/05 09:47:48;;;;;;;3.50;0.80;;;;;;;1.66;100.00;101156.31;7391628;19;20408;-49
2023/03/05 09:50:31;;;;;;;5.50;1.10;;;;;;;1.64;100.00;101138.34;7391096;19;20471;-43
2023/03/05 09:53:04;;;;;;;6.43;1.43;;;;;;;1.59;100.00;101144.75;7393425;19;20399;-42
2023/03/05 09:55:39;;;;;;;8.70;1.03;;;;;;;1.39;100.00;101145.59;7389911;19;20451;-42
2023/03/05 09:58:14;;;;;;;3.65;1.10;;;;;;;1.20;100.00;101139.84;7393543;19;20754;-44
2023/03/05 10:00:46;;;;;;;5.20;1.10;;;;;;;1.02;100.00;101138.25;7389063;19;20323;-46
2023/03/05 10:03:20;;;;;;;7.93;1.37;;;;;;;0.89;100.00;101141.38;7395209;19;20408;-43
2023/03/05 10:05:57;;;;;;;5.13;1.23;;;;;;;0.86;100.00;101131.81;7391701;19;20502;-43
2023/03/05 10:08:33;;;;;;;4.27;1.07;;;;;;;0.78;100.00;101115.03;7395094;19;20390;-43
2023/03/05 10:11:09;;;;;;;8.07;1.00;;;;;;;0.74;100.00;101101.19;7390800;19;20446;-42
2023/03/05 10:13:42;;;;;;;4.63;0.80;;;;;;;0.69;100.00;101096.44;7392873;19;20413;-41
2023/03/05 10:16:32;;;;;;;5.40;0.90;;;;;;;0.59;100.00;101084.59;7389785;19;20814;-44
2023/03/05 10:19:04;;;;;;;3.63;1.00;;;;;;;0.53;100.00;101082.41;7391570;19;20962;-44
2023/03/05 10:21:38;;;;;;;4.00;1.10;;;;;;;0.62;100.00;101065.41;7391343;19;20793;-46
2023/03/05 10:24:13;;;;;;;7.20;1.20;;;;;;;0.86;100.00;101059.81;7388899;19;20410;-43
2023/03/05 10:27:00;;;;;;;3.93;1.03;;;;;;;1.08;100.00;101047.28;7392445;19;20432;-43
2023/03/05 10:29:53;;;;;;;6.60;1.77;;;;;;;1.34;100.00;101046.03;7391332;19;20447;-44
2023/03/05 10:32:36;;;;;;;6.43;1.30;;;;;;;1.48;100.00;101045.53;7397462;19;20755;-44
2023/03/05 10:35:23;;;;;;;4.57;1.10;;;;;;;1.63;100.00;101045.00;7397634;19;20995;-43
2023/03/05 10:38:17;;;;;;;4.60;1.10;;;;;;;1.80;100.00;101042.97;7399620;19;20399;-43
2023/03/05 10:40:50;;;;;;;6.33;1.67;;;;;;;1.99;100.00;101043.69;7396258;19;20442;-42
2023/03/05 10:43:25;;;;;;;10.00;1.43;;;;;;;2.06;100.00;101045.09;7401223;19;20754;-42
2023/03/05 10:46:06;;;;;;;10.07;1.10;;;;;;;2.09;100.00;101042.78;7397532;19;20824;-44
2023/03/05 10:48:40;;;;;;;5.00;0.97;;;;;;;2.14;100.00;101045.69;7399448;19;20948;-41
2023/03/05 10:51:14;;;;;;;5.63;1.30;;;;;;;2.28;100.00;101049.34;7395462;19;20469;-43
2023/03/05 10:53:54;;;;;;;3.60;0.80;;;;;;;2.39;100.00;101058.75;7399296;19;20732;-43
2023/03/05 10:56:25;;;;;;;4.10;1.23;;;;;;;2.41;100.00;101051.22;7394939;19;20483;-43
2023/03/05 10:58:55;;;;;;;2.67;0.80;;;;;;;2.47;100.00;101056.81;7398963;19;20761;-44
2023/03/05 11:01:28;;;;;;;8.47;1.53;;;;;;;2.51;100.00;101063.91;7394332;19;20449;-43
2023/03/05 11:04:00;;;;;;;4.03;1.07;;;;;;;2.52;100.00;101075.00;7401185;19;20416;-42
2023/03/05 11:06:31;;;;;;;2.80;0.97;;;;;;;2.48;100.00;101063.69;7396926;19;20946;-44
2023/03/05 11:09:19;;;;;;;2.20;0.70;;;;;;;2.39;100.00;101076.56;7396228;19;20386;-47
2023/03/05 11:12:05;;;;;;;6.07;1.07;;;;;;;2.56;100.00;101088.09;7398382;19;20725;-42
2023/03/05 11:14:35;;;;;;;4.70;1.30;;;;;;;2.52;100.00;101070.78;7394449;19;20801;-43
2023/03/05 11:17:27;;;;;;;6.33;1.50;;;;;;;2.52;100.00;101080.97;7398951;19;20404;-43
2023/03/05 11:19:57;;;;;;;4.23;1.20;;;;;;;2.53;100.00;101080.22;7395164;19;20447;-43
2023/03/05 11:22:31;;;;;;;7.40;2.13;;;;;;;2.23;100.00;101122.84;7398606;19;20418;-44
2023/03/05 11:25:17;;;;;;;4.00;1.20;;;;;;;1.49;100.00;101059.16;7396816;19;20446;-44
2023/03/05 11:27:51;;;;;;;17.07;3.80;;;;;;;1.39;100.00;101049.81;7398101;19;20819;-45
2023/03/05 11:30:26;;;;;;;10.60;2.90;;;;;;;1.34;100.00;101035.88;7395642;19;20461;-42
2023/03/05 11:33:12;;;;;;;8.13;1.30;;;;;;;1.27;100.00;101025.94;7398740;19;20420;-41
2023/03/05 11:35:44;;;;;;;8.80;2.00;;;;;;;1.29;100.00;101011.72;7393653;19;20443;-42
2023/03/05 11:38:18;;;;;;;3.63;0.80;;;;;;;1.52;100.00;101002.53;7398209;19;20399;-47